Time;durP1;ratioP1;P1;durP2;ratioP2;P2;SDS_P1;SDS_P2;PMS_P1;PMS_P2;Temp;Humidity;BMP_temperature;BMP_pressure;BME280_temperature;BME280_humidity;BME280_pressure;Samples;Min_cycle;Max_cycle;Signal;HPM_P1;HPM_P2
2022/06/09 00:02:30;;;;;;;;;9.60;9.60;;;;;;;;5209037;28;8817;-68
2022/06/09 00:05:03;;;;;;;;;130.00;120.25;;;;;;;;5209247;28;8774;-67
2022/06/09 00:07:35;;;;;;;;;19.80;19.60;;;;;;;;5194339;28;8797;-67
2022/06/09 00:10:11;;;;;;;;;16.40;16.40;;;;;;;;5205441;28;8784;-67
2022/06/09 00:12:42;;;;;;;;;13.40;13.00;;;;;;;;5172578;28;9555;-67
2022/06/09 00:15:14;;;;;;;;;17.00;17.00;;;;;;;;5188062;28;8868;-67
2022/06/09 00:17:45;;;;;;;;;9.25;9.25;;;;;;;;5205381;28;8792;-68
2022/06/09 00:20:17;;;;;;;;;12.00;11.80;;;;;;;;5205251;28;8913;-68
2022/06/09 00:23:06;;;;;;;;;7.00;6.75;;;;;;;;5184934;28;8787;-68
2022/06/09 00:25:37;;;;;;;;;6.00;5.60;;;;;;;;5168560;28;9490;-68
2022/06/09 00:28:28;;;;;;;;;5.25;5.25;;;;;;;;5201227;28;9549;-68
2022/06/09 00:30:59;;;;;;;;;8.75;8.75;;;;;;;;5184588;28;8837;-68
2022/06/09 00:33:49;;;;;;;;;3.50;3.50;;;;;;;;5184485;28;8799;-68
2022/06/09 00:36:20;;;;;;;;;12.50;12.50;;;;;;;;5194685;28;8804;-68
2022/06/09 00:38:51;;;;;;;;;65.40;54.20;;;;;;;;5188579;28;8846;-68
2022/06/09 00:41:22;;;;;;;;;52.60;44.80;;;;;;;;5189108;28;8804;-68
2022/06/09 00:43:53;;;;;;;;;84.20;76.80;;;;;;;;5188319;28;8780;-70
2022/06/09 00:46:27;;;;;;;;;51.40;43.80;;;;;;;;5211539;28;8848;-74
2022/06/09 00:48:59;;;;;;;;;30.00;30.00;;;;;;;;5224887;28;8817;-68
2022/06/09 00:51:45;;;;;;;;;37.20;34.20;;;;;;;;5225129;28;8788;-68
2022/06/09 00:54:19;;;;;;;;;10.25;9.75;;;;;;;;5208322;28;8793;-68
2022/06/09 00:57:10;;;;;;;;;33.20;31.80;;;;;;;;5224675;28;8875;-68
2022/06/09 00:59:43;;;;;;;;;33.00;31.40;;;;;;;;5224950;28;8833;-68
2022/06/09 01:02:17;;;;;;;;;11.40;11.40;;;;;;;;5208316;28;8797;-68
2022/06/09 01:04:49;;;;;;;;;19.60;19.60;;;;;;;;5208214;28;8817;-68
2022/06/09 01:07:44;;;;;;;;;126.00;115.25;;;;;;;;5191882;28;9527;-68
2022/06/09 01:10:15;;;;;;;;;56.60;47.20;;;;;;;;5187586;28;8804;-68
2022/06/09 01:12:47;;;;;;;;;34.50;33.00;;;;;;;;5187738;28;8800;-68
2022/06/09 01:15:19;;;;;;;;;154.75;140.50;;;;;;;;5204976;28;10711;-68
2022/06/09 01:17:50;;;;;;;;;48.20;39.80;;;;;;;;5187464;28;10074;-68
2022/06/09 01:20:25;;;;;;;;;17.60;17.60;;;;;;;;5171018;28;8934;-67
2022/06/09 01:23:09;;;;;;;;;59.00;48.00;;;;;;;;5203848;28;8804;-67
2022/06/09 01:25:58;;;;;;;;;38.00;35.20;;;;;;;;5190639;28;8802;-67
2022/06/09 01:28:49;;;;;;;;;133.50;123.25;;;;;;;;5224610;28;8802;-67
2022/06/09 01:31:43;;;;;;;;;17.20;17.20;;;;;;;;5224943;28;10449;-67
2022/06/09 01:34:37;;;;;;;;;11.80;11.80;;;;;;;;5208136;28;8887;-68
2022/06/09 01:37:14;;;;;;;;;62.00;49.60;;;;;;;;5224680;28;9774;-68
2022/06/09 01:39:45;;;;;;;;;48.20;41.00;;;;;;;;5207580;28;8936;-68
2022/06/09 01:42:21;;;;;;;;;26.60;26.60;;;;;;;;5223789;28;8794;-69
2022/06/09 01:44:54;;;;;;;;;25.60;24.20;;;;;;;;5208016;28;8858;-68
2022/06/09 01:47:29;;;;;;;;;25.60;25.00;;;;;;;;5171940;28;8808;-68
2022/06/09 01:50:03;;;;;;;;;23.20;22.40;;;;;;;;5203624;28;8926;-68
2022/06/09 01:52:36;;;;;;;;;12.00;11.80;;;;;;;;5187446;28;8796;-68
2022/06/09 01:55:28;;;;;;;;;18.00;16.80;;;;;;;;5190075;28;8792;-68
2022/06/09 01:58:01;;;;;;;;;8.00;8.00;;;;;;;;5220889;28;8819;-68
2022/06/09 02:00:52;;;;;;;;;8.00;8.00;;;;;;;;5207337;28;8819;-68
2022/06/09 02:03:27;;;;;;;;;20.00;20.00;;;;;;;;5207683;28;8790;-68
2022/06/09 02:06:00;;;;;;;;;20.60;20.60;;;;;;;;5203416;28;8805;-68
2022/06/09 02:08:32;;;;;;;;;22.00;21.40;;;;;;;;5187152;28;8894;-68
2022/06/09 02:11:10;;;;;;;;;15.20;15.20;;;;;;;;5187178;28;9536;-69
2022/06/09 02:13:45;;;;;;;;;11.80;11.20;;;;;;;;5174324;28;8818;-68
2022/06/09 02:16:18;;;;;;;;;13.20;13.20;;;;;;;;5191132;28;8810;-68
2022/06/09 02:18:52;;;;;;;;;18.20;18.20;;;;;;;;5191041;28;8794;-69
2022/06/09 02:21:28;;;;;;;;;11.40;11.40;;;;;;;;5207049;28;8790;-69
2022/06/09 02:24:00;;;;;;;;;5.00;5.00;;;;;;;;5191097;28;8783;-69
2022/06/09 02:26:32;;;;;;;;;15.60;15.40;;;;;;;;5205403;28;8795;-70
2022/06/09 02:29:03;;;;;;;;;6.75;6.75;;;;;;;;5211322;28;8800;-71
2022/06/09 02:31:35;;;;;;;;;65.40;54.20;;;;;;;;5211671;28;8769;-70
2022/06/09 02:34:06;;;;;;;;;20.00;20.00;;;;;;;;5228061;28;8779;-70
2022/06/09 02:36:37;;;;;;;;;62.40;51.00;;;;;;;;5211336;28;8769;-70
2022/06/09 02:39:08;;;;;;;;;8.40;7.40;;;;;;;;5213933;28;8817;-69
2022/06/09 02:41:39;;;;;;;;;9.75;9.75;;;;;;;;5214779;28;8781;-69
2022/06/09 02:44:10;;;;;;;;;54.60;46.80;;;;;;;;5214863;28;11410;-69
2022/06/09 02:46:41;;;;;;;;;16.00;16.00;;;;;;;;5196650;28;8885;-69
2022/06/09 02:49:12;;;;;;;;;5.25;5.25;;;;;;;;5210856;28;8778;-69
2022/06/09 02:52:02;;;;;;;;;4.75;4.75;;;;;;;;5213851;28;8771;-69
2022/06/09 02:54:33;;;;;;;;;13.25;13.25;;;;;;;;5194562;28;8791;-68
2022/06/09 02:57:04;;;;;;;;;47.60;40.80;;;;;;;;5194093;28;8803;-69
2022/06/09 02:59:35;;;;;;;;;16.20;16.20;;;;;;;;5210218;28;8933;-68
2022/06/09 03:02:06;;;;;;;;;13.50;13.50;;;;;;;;5210708;28;8774;-69
2022/06/09 03:04:38;;;;;;;;;24.20;24.20;;;;;;;;5194034;28;9533;-69
2022/06/09 03:07:09;;;;;;;;;14.50;14.50;;;;;;;;5211445;28;8917;-68
2022/06/09 03:09:40;;;;;;;;;11.00;11.00;;;;;;;;5210939;28;8885;-69
2022/06/09 03:12:11;;;;;;;;;4.00;4.00;;;;;;;;5210534;28;8806;-68
2022/06/09 03:14:42;;;;;;;;;11.50;11.00;;;;;;;;5194180;28;8782;-68
2022/06/09 03:17:14;;;;;;;;;7.25;7.25;;;;;;;;5194111;28;8770;-68
2022/06/09 03:19:45;;;;;;;;;2.25;2.25;;;;;;;;5197147;28;8839;-69
2022/06/09 03:22:17;;;;;;;;;7.00;7.00;;;;;;;;5193874;28;8786;-68
2022/06/09 03:24:48;;;;;;;;;7.50;7.50;;;;;;;;5194176;28;8778;-67
2022/06/09 03:27:19;;;;;;;;;29.60;29.00;;;;;;;;5199587;28;8819;-68
2022/06/09 03:29:50;;;;;;;;;5.67;5.67;;;;;;;;5230331;28;8784;-68
2022/06/09 03:32:40;;;;;;;;;5.00;5.00;;;;;;;;5230187;28;8834;-68
2022/06/09 03:35:12;;;;;;;;;7.00;7.00;;;;;;;;5248268;28;8769;-68
2022/06/09 03:38:01;;;;;;;;;9.75;9.75;;;;;;;;5248709;28;11502;-68
2022/06/09 03:40:32;;;;;;;;;8.50;8.50;;;;;;;;5213414;28;8809;-68
2022/06/09 03:43:03;;;;;;;;;4.50;4.50;;;;;;;;5247471;28;8815;-70
2022/06/09 03:45:53;;;;;;;;;7.00;7.00;;;;;;;;5216744;28;8861;-68
2022/06/09 03:48:24;;;;;;;;;4.75;4.75;;;;;;;;5197266;28;8901;-68
2022/06/09 03:50:55;;;;;;;;;2.00;2.00;;;;;;;;5193557;28;8922;-68
2022/06/09 03:53:26;;;;;;;;;3.50;3.50;;;;;;;;5193310;28;8797;-68
2022/06/09 03:55:57;;;;;;;;;2.75;2.75;;;;;;;;5193282;28;8778;-68
2022/06/09 03:58:28;;;;;;;;;4.50;4.50;;;;;;;;5192458;28;8956;-69
2022/06/09 04:00:59;;;;;;;;;5.00;4.00;;;;;;;;5227626;28;8783;-68
2022/06/09 04:03:30;;;;;;;;;0.00;0.00;;;;;;;;5193051;28;11464;-68
2022/06/09 04:06:01;;;;;;;;;13.67;13.67;;;;;;;;5192985;28;8825;-68
2022/06/09 04:08:33;;;;;;;;;0.75;0.75;;;;;;;;5245539;28;11187;-68
2022/06/09 04:11:04;;;;;;;;;5.75;5.75;;;;;;;;5213248;28;8801;-69
2022/06/09 04:13:36;;;;;;;;;44.00;38.40;;;;;;;;5247757;28;8835;-67
2022/06/09 04:16:17;;;;;;;;;30.80;30.20;;;;;;;;5247701;28;8776;-69
2022/06/09 04:18:48;;;;;;;;;23.20;23.20;;;;;;;;5229829;28;8804;-67
2022/06/09 04:21:20;;;;;;;;;13.00;13.00;;;;;;;;5229674;28;8808;-68
2022/06/09 04:23:51;;;;;;;;;2.00;2.00;;;;;;;;5213476;28;8919;-68
2022/06/09 04:26:41;;;;;;;;;2.00;2.00;;;;;;;;5224761;28;8791;-67
2022/06/09 04:29:13;;;;;;;;;7.25;6.50;;;;;;;;5208677;28;8774;-68
2022/06/09 04:31:45;;;;;;;;;1.00;1.00;;;;;;;;5208920;28;8871;-67
2022/06/09 04:34:16;;;;;;;;;2.00;2.00;;;;;;;;5192519;28;8763;-67
2022/06/09 04:36:47;;;;;;;;;2.00;2.00;;;;;;;;5208845;28;8794;-66
2022/06/09 04:39:18;;;;;;;;;2.25;2.25;;;;;;;;5192290;28;11609;-67
2022/06/09 04:42:08;;;;;;;;;2.00;2.00;;;;;;;;5194847;28;8833;-67
2022/06/09 04:44:39;;;;;;;;;1.50;1.50;;;;;;;;5226647;28;8871;-67
2022/06/09 04:47:10;;;;;;;;;2.00;2.00;;;;;;;;5218370;28;8785;-69
2022/06/09 04:49:41;;;;;;;;;1.50;1.50;;;;;;;;5241422;28;9950;-71
2022/06/09 04:52:12;;;;;;;;;0.00;0.00;;;;;;;;5217104;28;9509;-69
2022/06/09 04:54:43;;;;;;;;;3.00;3.00;;;;;;;;5225111;28;9543;-68
2022/06/09 04:57:14;;;;;;;;;2.50;2.50;;;;;;;;5226496;28;8888;-68
2022/06/09 04:59:45;;;;;;;;;1.00;1.00;;;;;;;;5208471;28;8944;-68
2022/06/09 05:02:16;;;;;;;;;13.33;13.33;;;;;;;;5220326;28;8919;-68
2022/06/09 05:04:47;;;;;;;;;1.00;1.00;;;;;;;;5186243;28;8870;-69
2022/06/09 05:07:18;;;;;;;;;8.00;8.00;;;;;;;;5229286;28;9516;-70
2022/06/09 05:09:48;;;;;;;;;1.33;1.33;;;;;;;;5227073;28;8813;-69
2022/06/09 05:12:20;;;;;;;;;1.67;1.67;;;;;;;;5210478;28;10805;-67
2022/06/09 05:14:52;;;;;;;;;8.00;7.00;;;;;;;;5226650;28;10254;-69
2022/06/09 05:17:22;;;;;;;;;0.75;0.75;;;;;;;;5223422;28;8833;-69
2022/06/09 05:19:53;;;;;;;;;2.00;2.00;;;;;;;;5220993;28;8820;-68
2022/06/09 05:22:25;;;;;;;;;1.00;1.00;;;;;;;;5239858;28;8781;-70
2022/06/09 05:24:59;;;;;;;;;1.25;1.25;;;;;;;;5210420;28;9192;-69
2022/06/09 05:27:48;;;;;;;;;4.75;4.75;;;;;;;;5226987;28;8806;-71
2022/06/09 05:30:22;;;;;;;;;4.33;4.33;;;;;;;;5189900;28;8822;-70
2022/06/09 05:32:52;;;;;;;;;44.80;38.80;;;;;;;;5206159;28;8809;-70
2022/06/09 05:35:24;;;;;;;;;0.25;0.25;;;;;;;;5224109;28;8802;-68
2022/06/09 05:46:23;;;;;;;;;2.50;2.50;;;;;;;;5207520;28;8787;-68
2022/06/09 05:48:54;;;;;;;;;4.00;4.00;;;;;;;;5225625;28;8893;-68
2022/06/09 05:51:25;;;;;;;;;0.00;0.00;;;;;;;;5207698;28;8921;-68
2022/06/09 05:54:14;;;;;;;;;0.75;0.75;;;;;;;;5236852;28;11453;-69
2022/06/09 05:56:45;;;;;;;;;0.00;0.00;;;;;;;;5205664;28;8820;-69
2022/06/09 05:59:16;;;;;;;;;0.00;0.00;;;;;;;;5206751;28;8934;-68
2022/06/09 06:01:48;;;;;;;;;1.00;1.00;;;;;;;;5207212;28;8806;-68
2022/06/09 06:04:19;;;;;;;;;1.00;1.00;;;;;;;;5207970;28;9668;-68
2022/06/09 06:06:50;;;;;;;;;2.00;2.00;;;;;;;;5225999;28;8931;-68
2022/06/09 06:09:21;;;;;;;;;6.00;6.00;;;;;;;;5213665;28;8794;-68
2022/06/09 06:11:52;;;;;;;;;1.00;1.00;;;;;;;;5207557;28;10331;-68
2022/06/09 06:14:42;;;;;;;;;8.25;8.25;;;;;;;;5229584;28;8798;-68
2022/06/09 06:17:31;;;;;;;;;2.75;2.75;;;;;;;;5229438;28;8913;-69
2022/06/09 06:20:02;;;;;;;;;2.00;2.00;;;;;;;;5196159;28;8860;-68
2022/06/09 06:22:33;;;;;;;;;2.00;2.00;;;;;;;;5229274;28;8789;-69
2022/06/09 06:25:06;;;;;;;;;1.00;1.00;;;;;;;;5199855;28;8785;-69
2022/06/09 06:27:55;;;;;;;;;26.25;25.75;;;;;;;;5234802;28;8780;-69
2022/06/09 06:30:45;;;;;;;;;20.20;20.00;;;;;;;;5234800;28;9476;-69
2022/06/09 06:33:16;;;;;;;;;11.00;11.00;;;;;;;;5231923;28;8761;-68
2022/06/09 06:35:47;;;;;;;;;1.00;1.00;;;;;;;;5249531;28;11187;-69
2022/06/09 06:38:18;;;;;;;;;0.33;0.33;;;;;;;;5249565;28;8745;-69
2022/06/09 06:41:08;;;;;;;;;1.00;1.00;;;;;;;;5233698;28;11408;-69
2022/06/09 06:43:39;;;;;;;;;2.00;2.00;;;;;;;;5211502;28;8925;-69
2022/06/09 06:46:28;;;;;;;;;2.25;2.25;;;;;;;;5246771;28;8789;-69
2022/06/09 06:48:59;;;;;;;;;2.67;2.67;;;;;;;;5249967;28;8858;-69
2022/06/09 06:51:30;;;;;;;;;0.25;0.25;;;;;;;;5248124;28;9589;-69
2022/06/09 06:54:20;;;;;;;;;2.00;2.00;;;;;;;;5236587;28;8791;-69
2022/06/09 06:57:09;;;;;;;;;0.00;0.00;;;;;;;;5228698;28;8806;-69
2022/06/09 06:59:41;;;;;;;;;1.00;1.00;;;;;;;;5206243;28;8870;-69
2022/06/09 07:02:12;;;;;;;;;55.80;46.40;;;;;;;;5191050;28;8895;-68
2022/06/09 07:04:44;;;;;;;;;2.00;2.00;;;;;;;;5207985;28;8792;-69
2022/06/09 07:07:15;;;;;;;;;1.75;1.75;;;;;;;;5191002;28;8861;-70
2022/06/09 07:09:45;;;;;;;;;2.00;2.00;;;;;;;;5208062;28;8800;-69
2022/06/09 07:12:16;;;;;;;;;0.00;0.00;;;;;;;;5208279;28;8828;-69
2022/06/09 07:14:47;;;;;;;;;0.00;0.00;;;;;;;;5208675;28;9856;-69
2022/06/09 07:17:18;;;;;;;;;0.33;0.33;;;;;;;;5216332;28;9618;-69
2022/06/09 07:19:49;;;;;;;;;22.25;20.00;;;;;;;;5210980;28;8854;-69
2022/06/09 07:22:20;;;;;;;;;36.00;33.00;;;;;;;;5206785;28;8819;-69
2022/06/09 07:24:55;;;;;;;;;1.50;1.50;;;;;;;;5212041;28;8785;-70
2022/06/09 07:27:26;;;;;;;;;0.00;0.00;;;;;;;;5224390;28;8793;-69
2022/06/09 07:29:57;;;;;;;;;1.00;1.00;;;;;;;;5228029;28;8800;-69
2022/06/09 07:32:47;;;;;;;;;6.75;6.75;;;;;;;;5194130;28;8792;-69
2022/06/09 07:35:20;;;;;;;;;63.80;51.20;;;;;;;;5207824;28;8784;-68
2022/06/09 07:37:51;;;;;;;;;11.50;11.50;;;;;;;;5206253;28;8818;-68
2022/06/09 07:40:22;;;;;;;;;66.00;54.80;;;;;;;;5205899;28;9542;-68
2022/06/09 07:42:53;;;;;;;;;4.75;4.75;;;;;;;;5205979;28;8792;-69
2022/06/09 07:45:24;;;;;;;;;104.50;95.75;;;;;;;;5219096;28;8790;-68
2022/06/09 07:47:55;;;;;;;;;6.50;6.50;;;;;;;;5226436;28;11617;-68
2022/06/09 07:50:45;;;;;;;;;39.60;33.40;;;;;;;;5208763;28;8883;-69
2022/06/09 07:53:17;;;;;;;;;3.25;3.25;;;;;;;;5205533;28;8832;-68
2022/06/09 07:56:07;;;;;;;;;14.80;14.80;;;;;;;;5224396;28;8806;-68
2022/06/09 07:58:56;;;;;;;;;26.20;26.20;;;;;;;;5237667;28;8860;-68
2022/06/09 08:01:28;;;;;;;;;41.40;36.00;;;;;;;;5239390;28;8812;-68
2022/06/09 08:03:59;;;;;;;;;6.00;6.00;;;;;;;;5213179;28;8860;-68
2022/06/09 08:06:30;;;;;;;;;4.50;4.50;;;;;;;;5227109;28;8810;-68
2022/06/09 08:09:19;;;;;;;;;7.25;7.25;;;;;;;;5203877;28;9578;-68
2022/06/09 08:11:55;;;;;;;;;4.00;4.00;;;;;;;;5214459;28;8827;-69
2022/06/09 08:14:26;;;;;;;;;2.25;2.25;;;;;;;;5228319;28;8805;-69
2022/06/09 08:16:57;;;;;;;;;1.00;1.00;;;;;;;;5230411;28;8862;-69
2022/06/09 08:19:28;;;;;;;;;2.67;2.67;;;;;;;;5229950;28;11398;-69
2022/06/09 08:22:04;;;;;;;;;1.00;1.00;;;;;;;;5213698;28;8915;-70
2022/06/09 08:24:54;;;;;;;;;1.50;1.50;;;;;;;;5245366;28;8781;-69
2022/06/09 08:27:44;;;;;;;;;2.00;2.00;;;;;;;;5226778;28;8783;-68
2022/06/09 08:30:16;;;;;;;;;1.50;1.50;;;;;;;;5209614;28;8857;-69
2022/06/09 08:32:46;;;;;;;;;3.00;3.00;;;;;;;;5229593;28;8772;-69
2022/06/09 08:35:18;;;;;;;;;7.67;7.67;;;;;;;;5228913;28;8842;-68
2022/06/09 08:37:51;;;;;;;;;0.75;0.75;;;;;;;;5218105;28;12290;-69
2022/06/09 08:40:39;;;;;;;;;4.25;4.25;;;;;;;;5192461;28;8806;-68
2022/06/09 08:43:13;;;;;;;;;2.50;2.50;;;;;;;;5208748;28;8802;-69
2022/06/09 08:45:45;;;;;;;;;3.50;3.50;;;;;;;;5192143;28;8771;-68
2022/06/09 08:48:38;;;;;;;;;3.00;3.00;;;;;;;;5213748;28;9406;-69
2022/06/09 08:51:12;;;;;;;;;15.75;15.75;;;;;;;;5247106;28;8803;-69
2022/06/09 08:53:54;;;;;;;;;0.50;0.50;;;;;;;;5217609;28;8802;-70
2022/06/09 08:56:28;;;;;;;;;41.00;35.80;;;;;;;;5224578;28;8819;-70
2022/06/09 08:59:04;;;;;;;;;23.40;23.40;;;;;;;;5209257;28;8900;-70
2022/06/09 09:02:01;;;;;;;;;66.00;55.60;;;;;;;;5209811;28;9482;-69
2022/06/09 09:04:42;;;;;;;;;14.25;14.25;;;;;;;;5216523;28;8886;-70
2022/06/09 09:07:30;;;;;;;;;2.00;2.00;;;;;;;;5204457;28;8757;-69
2022/06/09 09:10:11;;;;;;;;;3.75;3.75;;;;;;;;5241735;28;8777;-69
2022/06/09 09:13:02;;;;;;;;;14.25;14.25;;;;;;;;5245370;28;8817;-69
2022/06/09 09:15:56;;;;;;;;;56.20;47.00;;;;;;;;5243176;28;8914;-68
2022/06/09 09:18:37;;;;;;;;;4.25;4.25;;;;;;;;5208188;28;8921;-70
2022/06/09 09:21:11;;;;;;;;;47.20;40.00;;;;;;;;5208053;28;8813;-69
2022/06/09 09:24:02;;;;;;;;;58.80;48.60;;;;;;;;5208462;28;9452;-69
2022/06/09 09:26:43;;;;;;;;;67.60;56.20;;;;;;;;5191371;28;8801;-69
2022/06/09 09:29:19;;;;;;;;;13.00;13.00;;;;;;;;5212418;28;9539;-69
2022/06/09 09:32:13;;;;;;;;;36.80;34.00;;;;;;;;5207997;28;8822;-69
2022/06/09 09:35:07;;;;;;;;;22.25;21.75;;;;;;;;5210042;28;8825;-68
2022/06/09 09:37:43;;;;;;;;;0.00;0.00;;;;;;;;5191552;28;8795;-68
2022/06/09 09:40:16;;;;;;;;;182.00;163.75;;;;;;;;5191572;28;9534;-69
2022/06/09 09:42:49;;;;;;;;;1.25;1.25;;;;;;;;5225530;28;8774;-69
2022/06/09 09:45:22;;;;;;;;;1.25;1.25;;;;;;;;5207859;28;9529;-69
2022/06/09 09:47:55;;;;;;;;;4.25;4.25;;;;;;;;5237561;28;9549;-69
2022/06/09 09:50:45;;;;;;;;;283.25;236.25;;;;;;;;5225675;28;8833;-68
2022/06/09 09:53:18;;;;;;;;;10.75;10.50;;;;;;;;5234704;28;11726;-69
2022/06/09 09:55:52;;;;;;;;;104.80;92.20;;;;;;;;5210693;28;8842;-69
2022/06/09 09:58:25;;;;;;;;;24.50;24.25;;;;;;;;5230502;28;8917;-69
2022/06/09 10:01:16;;;;;;;;;10.50;9.75;;;;;;;;5245938;28;8793;-69
2022/06/09 10:09:38;;;;;;;;;3.00;3.00;;;;;;;;5236960;28;8801;-69
2022/06/09 10:12:12;;;;;;;;;3.75;3.75;;;;;;;;5207742;28;8823;-70
2022/06/09 10:14:54;;;;;;;;;2.50;2.50;;;;;;;;5211303;28;8808;-70
2022/06/09 10:17:28;;;;;;;;;2.25;2.25;;;;;;;;5225921;28;8804;-68
2022/06/09 10:20:05;;;;;;;;;15.25;15.25;;;;;;;;5223768;28;8828;-70
2022/06/09 10:22:37;;;;;;;;;12.00;12.00;;;;;;;;5207572;28;8770;-68
2022/06/09 10:25:21;;;;;;;;;2.25;2.25;;;;;;;;5224391;28;8757;-70
2022/06/09 10:27:58;;;;;;;;;2.50;2.50;;;;;;;;5206555;28;8794;-69
2022/06/09 10:30:49;;;;;;;;;22.25;21.75;;;;;;;;5220550;28;8796;-69
2022/06/09 10:34:04;;;;;;;;;49.20;40.00;;;;;;;;5230441;28;8777;-69
2022/06/09 10:36:41;;;;;;;;;57.60;45.80;;;;;;;;5219973;28;8936;-69
2022/06/09 10:39:35;;;;;;;;;3.25;3.25;;;;;;;;5187068;28;8805;-69
2022/06/09 10:42:32;;;;;;;;;1.25;1.25;;;;;;;;5186711;28;8916;-69
2022/06/09 10:45:17;;;;;;;;;1.00;1.00;;;;;;;;5237984;28;9512;-69
2022/06/09 10:56:48;;;;;;;;;1.25;1.00;;;;;;;;5243422;28;9500;-69
2022/06/09 10:59:49;;;;;;;;;7.00;7.00;;;;;;;;5240349;28;8815;-69
2022/06/09 11:02:39;;;;;;;;;3.50;3.00;;;;;;;;5193193;28;8908;-69
2022/06/09 11:05:13;;;;;;;;;87.75;86.25;;;;;;;;5215715;28;9912;-70
2022/06/09 11:07:56;;;;;;;;;40.00;35.60;;;;;;;;5210163;28;8911;-70
2022/06/09 11:10:32;;;;;;;;;16.75;15.50;;;;;;;;5228303;28;8790;-70
2022/06/09 11:13:12;;;;;;;;;0.50;0.50;;;;;;;;5211265;28;8785;-69
2022/06/09 11:15:46;;;;;;;;;213.75;172.50;;;;;;;;5223613;28;8778;-69
2022/06/09 11:18:20;;;;;;;;;140.25;121.00;;;;;;;;5213405;28;10415;-68
2022/06/09 11:20:51;;;;;;;;;3.75;3.75;;;;;;;;5221463;28;8795;-69
2022/06/09 11:23:25;;;;;;;;;78.75;73.50;;;;;;;;5228023;28;9537;-70
2022/06/09 11:25:57;;;;;;;;;31.25;30.00;;;;;;;;5219401;28;11517;-68
2022/06/09 11:28:55;;;;;;;;;5.75;5.75;;;;;;;;5245907;28;8779;-69
2022/06/09 11:31:52;;;;;;;;;7.25;7.25;;;;;;;;5224230;28;8799;-69
2022/06/09 11:34:29;;;;;;;;;3.00;3.00;;;;;;;;5194820;28;8783;-70
2022/06/09 11:37:36;;;;;;;;;43.00;37.20;;;;;;;;5218400;28;8973;-69
2022/06/09 11:40:26;;;;;;;;;2.00;2.00;;;;;;;;5147972;28;8809;-69
2022/06/09 11:43:06;;;;;;;;;2.75;2.75;;;;;;;;5226567;28;8781;-69
2022/06/09 11:45:43;;;;;;;;;0.50;0.50;;;;;;;;5230743;28;8764;-69
2022/06/09 11:48:29;;;;;;;;;3.00;3.00;;;;;;;;5248740;28;8769;-69
2022/06/09 11:51:01;;;;;;;;;4.75;4.75;;;;;;;;5230685;28;8749;-70
2022/06/09 11:53:36;;;;;;;;;0.00;0.00;;;;;;;;5230544;28;8776;-70
2022/06/09 11:56:34;;;;;;;;;1.00;1.00;;;;;;;;5230517;28;8803;-70
2022/06/09 11:59:06;;;;;;;;;5.25;5.25;;;;;;;;5230095;28;8832;-70
2022/06/09 12:01:37;;;;;;;;;1.00;1.00;;;;;;;;5230263;28;8765;-70
2022/06/09 12:04:12;;;;;;;;;0.00;0.00;;;;;;;;5213570;28;11455;-70
2022/06/09 12:07:05;;;;;;;;;142.50;123.25;;;;;;;;5247667;28;8765;-70
2022/06/09 12:09:42;;;;;;;;;47.40;40.40;;;;;;;;5247224;28;8792;-69
2022/06/09 12:12:26;;;;;;;;;62.20;50.00;;;;;;;;5248070;28;8897;-70
2022/06/09 12:15:13;;;;;;;;;91.60;81.40;;;;;;;;5228421;28;8792;-69
2022/06/09 12:18:01;;;;;;;;;23.50;23.25;;;;;;;;5230017;28;8776;-68
2022/06/09 12:20:32;;;;;;;;;98.60;76.00;;;;;;;;5213154;28;8844;-68
2022/06/09 12:23:18;;;;;;;;;39.20;33.80;;;;;;;;5230166;28;9508;-70
2022/06/09 12:26:08;;;;;;;;;4.75;4.75;;;;;;;;5229882;28;8854;-69
2022/06/09 12:28:42;;;;;;;;;2.25;2.25;;;;;;;;5229012;28;8804;-67
2022/06/09 12:31:15;;;;;;;;;2.00;2.00;;;;;;;;5218231;28;8798;-69
2022/06/09 12:34:16;;;;;;;;;2.00;2.00;;;;;;;;5210386;28;8790;-69
2022/06/09 12:37:06;;;;;;;;;1.25;1.25;;;;;;;;5237590;28;8791;-68
2022/06/09 12:39:44;;;;;;;;;0.00;0.00;;;;;;;;5203816;28;8844;-69
2022/06/09 12:42:15;;;;;;;;;1.75;1.75;;;;;;;;5226843;28;8872;-69
2022/06/09 12:44:53;;;;;;;;;42.33;37.33;;;;;;;;5226526;28;8778;-70
2022/06/09 12:47:25;;;;;;;;;33.60;31.80;;;;;;;;5195144;28;12200;-68
2022/06/09 12:50:00;;;;;;;;;1.00;1.00;;;;;;;;5212594;28;8800;-68
2022/06/09 12:52:34;;;;;;;;;6.50;6.50;;;;;;;;5247054;28;8789;-69
2022/06/09 12:55:08;;;;;;;;;20.25;20.25;;;;;;;;5228863;28;8805;-68
2022/06/09 12:57:44;;;;;;;;;2.25;2.25;;;;;;;;5200986;28;8799;-69
2022/06/09 13:00:18;;;;;;;;;2.00;2.00;;;;;;;;5202674;28;9542;-71
2022/06/09 13:02:49;;;;;;;;;10.25;10.25;;;;;;;;5226218;28;8809;-69
2022/06/09 13:05:20;;;;;;;;;36.00;32.50;;;;;;;;5224795;28;9560;-69
2022/06/09 13:08:00;;;;;;;;;22.00;21.00;;;;;;;;5226078;28;8787;-69
2022/06/09 13:10:55;;;;;;;;;4.50;4.50;;;;;;;;5208368;28;8795;-69
2022/06/09 13:13:30;;;;;;;;;3.00;3.00;;;;;;;;5208792;28;9626;-69
2022/06/09 13:16:03;;;;;;;;;3.25;3.25;;;;;;;;5198633;28;8850;-71
2022/06/09 13:18:36;;;;;;;;;0.25;0.25;;;;;;;;5206475;28;8859;-69
2022/06/09 13:21:31;;;;;;;;;13.50;13.50;;;;;;;;5223825;28;8856;-69
2022/06/09 13:24:03;;;;;;;;;16.00;16.00;;;;;;;;5206223;28;8779;-69
2022/06/09 13:26:44;;;;;;;;;16.50;16.25;;;;;;;;5190001;28;8939;-71
2022/06/09 13:29:21;;;;;;;;;23.00;22.00;;;;;;;;5206438;28;8802;-69
2022/06/09 13:32:19;;;;;;;;;4.00;4.00;;;;;;;;5191079;28;8798;-70
2022/06/09 13:34:52;;;;;;;;;24.40;24.40;;;;;;;;5206602;28;8953;-70
2022/06/09 13:37:37;;;;;;;;;18.25;18.00;;;;;;;;5189894;28;8775;-69
2022/06/09 13:40:11;;;;;;;;;70.40;61.20;;;;;;;;5205618;28;8822;-67
2022/06/09 13:42:46;;;;;;;;;5.25;5.25;;;;;;;;5223894;28;8783;-69
2022/06/09 13:45:39;;;;;;;;;0.50;0.50;;;;;;;;5229688;28;8881;-70
2022/06/09 13:48:39;;;;;;;;;2.00;2.00;;;;;;;;5244802;28;8768;-68
2022/06/09 13:51:21;;;;;;;;;4.25;4.25;;;;;;;;5226654;28;8869;-69
2022/06/09 13:54:14;;;;;;;;;84.25;80.25;;;;;;;;5244295;28;8813;-69
2022/06/09 13:56:46;;;;;;;;;15.00;15.00;;;;;;;;5226587;28;8819;-70
2022/06/09 13:59:19;;;;;;;;;2.00;2.00;;;;;;;;5225646;28;8828;-70
2022/06/09 14:01:52;;;;;;;;;4.50;4.50;;;;;;;;5192572;28;8791;-70
2022/06/09 14:04:31;;;;;;;;;2.00;2.00;;;;;;;;5223447;28;8775;-70
2022/06/09 14:07:02;;;;;;;;;0.75;0.75;;;;;;;;5198697;28;8779;-70
2022/06/09 14:09:33;;;;;;;;;2.00;2.00;;;;;;;;5189371;28;8821;-71
2022/06/09 14:12:12;;;;;;;;;3.00;3.00;;;;;;;;5223338;28;8837;-70
2022/06/09 14:14:47;;;;;;;;;2.00;2.00;;;;;;;;5190501;28;8798;-70
2022/06/09 14:17:23;;;;;;;;;2.50;2.50;;;;;;;;5205519;28;8817;-70
2022/06/09 14:19:54;;;;;;;;;1.50;1.50;;;;;;;;5205652;28;8807;-71
2022/06/09 14:22:25;;;;;;;;;0.75;0.75;;;;;;;;5189171;28;10048;-71
2022/06/09 14:24:56;;;;;;;;;1.75;1.75;;;;;;;;5225894;28;8833;-69
2022/06/09 14:27:26;;;;;;;;;4.33;4.33;;;;;;;;5226040;28;8812;-70
2022/06/09 14:29:57;;;;;;;;;4.00;4.00;;;;;;;;5243919;28;11519;-69
2022/06/09 14:32:31;;;;;;;;;1.50;1.50;;;;;;;;5226622;28;11441;-71
2022/06/09 14:35:03;;;;;;;;;0.50;0.50;;;;;;;;5246861;28;9545;-73
2022/06/09 14:37:34;;;;;;;;;1.00;1.00;;;;;;;;5213399;28;8816;-70
2022/06/09 14:40:29;;;;;;;;;0.75;0.75;;;;;;;;5221497;28;8791;-72
2022/06/09 14:43:01;;;;;;;;;0.00;0.00;;;;;;;;5227408;28;8899;-71
2022/06/09 14:45:32;;;;;;;;;1.00;1.00;;;;;;;;5218356;28;8800;-71
2022/06/09 14:48:03;;;;;;;;;1.00;1.00;;;;;;;;5212888;28;8793;-70
2022/06/09 14:50:37;;;;;;;;;1.00;1.00;;;;;;;;5214247;28;8836;-71
2022/06/09 14:53:10;;;;;;;;;1.00;1.00;;;;;;;;5213130;28;9503;-72
2022/06/09 14:55:42;;;;;;;;;1.00;1.00;;;;;;;;5229827;28;8855;-70
2022/06/09 14:58:14;;;;;;;;;1.00;1.00;;;;;;;;5201187;28;8822;-71
2022/06/09 15:00:46;;;;;;;;;1.50;1.50;;;;;;;;5209510;28;8832;-71
2022/06/09 15:03:17;;;;;;;;;0.00;0.00;;;;;;;;5209047;28;8940;-70
2022/06/09 15:05:48;;;;;;;;;2.00;2.00;;;;;;;;5192673;28;8946;-71
2022/06/09 15:08:19;;;;;;;;;1.00;1.00;;;;;;;;5209021;28;8799;-70
2022/06/09 15:10:52;;;;;;;;;1.75;1.75;;;;;;;;5208641;28;8865;-70
2022/06/09 15:13:24;;;;;;;;;0.75;0.75;;;;;;;;5208800;28;8790;-71
2022/06/09 15:16:01;;;;;;;;;1.25;1.25;;;;;;;;5191860;28;8794;-70
2022/06/09 15:18:32;;;;;;;;;1.25;1.25;;;;;;;;5192340;28;8802;-70
2022/06/09 15:21:05;;;;;;;;;1.50;1.50;;;;;;;;5224826;28;8792;-72
2022/06/09 15:23:36;;;;;;;;;0.75;0.75;;;;;;;;5247471;28;8773;-70
2022/06/09 15:26:09;;;;;;;;;1.67;1.67;;;;;;;;5212138;28;8888;-70
2022/06/09 15:28:40;;;;;;;;;1.25;1.25;;;;;;;;5208226;28;9518;-70
2022/06/09 15:31:11;;;;;;;;;0.33;0.33;;;;;;;;5235365;28;8828;-71
2022/06/09 15:34:00;;;;;;;;;1.50;1.50;;;;;;;;5248669;28;11409;-71
2022/06/09 15:36:31;;;;;;;;;1.50;1.50;;;;;;;;5249407;28;8832;-72
2022/06/09 15:39:03;;;;;;;;;0.00;0.00;;;;;;;;5249865;28;8777;-70
2022/06/09 15:41:34;;;;;;;;;1.00;1.00;;;;;;;;5249102;28;8797;-69
2022/06/09 15:44:05;;;;;;;;;1.25;1.25;;;;;;;;5228622;28;8788;-71
2022/06/09 15:46:36;;;;;;;;;1.00;1.00;;;;;;;;5229153;28;9512;-71
2022/06/09 15:49:07;;;;;;;;;0.00;0.00;;;;;;;;5247006;28;11460;-71
2022/06/09 15:51:42;;;;;;;;;0.00;0.00;;;;;;;;5246797;28;8785;-70
2022/06/09 15:54:12;;;;;;;;;1.00;1.00;;;;;;;;5208102;28;8905;-69
2022/06/09 15:56:44;;;;;;;;;1.00;1.00;;;;;;;;5207974;28;9000;-70
2022/06/09 15:59:15;;;;;;;;;1.00;1.00;;;;;;;;5225241;28;8826;-73
2022/06/09 16:01:46;;;;;;;;;0.50;0.50;;;;;;;;5217009;28;8899;-71
2022/06/09 16:04:17;;;;;;;;;1.00;1.00;;;;;;;;5211178;28;8998;-71
2022/06/09 16:06:48;;;;;;;;;1.75;1.75;;;;;;;;5227645;28;8789;-72